< < Back
Terminal Aerodrome Forecast


Current Version              Previous Versions:   1  2  3  4  5  6  7  8  9  

Terminal Aerodrome Forecast

723
FTAK31 PAJN 230500
TAFAGS
TAF
PAGS 230535Z 2306/2406 24008KT P6SM BKN100 BKN200
     FM231200 VRB03KT 6SM BCFG BKN005 OVC100
     FM231800 22006KT P6SM SCT050 BKN100
     FM232200 24010KT P6SM SCT010 SCT050 BKN100
      AMD LTD TO CLD VIS AND WIND=

Latest METAR

953
SAUS70 KWBC 230600
MTRAGS
METAR KAGS 230553Z AUTO 00000KT 10SM CLR 13/11 A3026 RMK AO2 SLP246
T01280111 10244 20122 50004


USA.gov is the U.S. government's official web portal to all federal, state and local government web resources and services.